createdAt,value
2019-01-31T00:00:30.504Z,64.65
2019-01-31T00:01:01.675Z,65.83
2019-01-31T00:01:32.843Z,66.12
2019-01-31T00:02:04.003Z,64.10
2019-01-31T00:02:35.166Z,64.97
2019-01-31T00:03:06.329Z,64.95
2019-01-31T00:03:37.495Z,62.20
2019-01-31T00:04:08.702Z,62.60
2019-01-31T00:04:39.883Z,62.48
2019-01-31T00:05:11.046Z,63.73
2019-01-31T00:05:42.218Z,62.53
2019-01-31T00:06:13.385Z,65.75
2019-01-31T00:06:44.566Z,64.27
2019-01-31T00:07:15.736Z,65.62
2019-01-31T00:07:46.920Z,65.65
2019-01-31T00:08:18.132Z,65.40
2019-01-31T00:08:49.295Z,65.75
2019-01-31T00:09:20.479Z,65.03
2019-01-31T00:09:51.641Z,67.15
2019-01-31T00:10:22.829Z,67.20
2019-01-31T00:10:54.010Z,66.40
2019-01-31T00:11:25.172Z,69.27
2019-01-31T00:11:56.400Z,66.75
2019-01-31T00:12:27.570Z,68.30
2019-01-31T00:12:58.777Z,67.75
2019-01-31T00:13:29.945Z,67.90
2019-01-31T00:14:01.111Z,67.12
2019-01-31T00:14:32.289Z,67.95
2019-01-31T00:15:03.452Z,70.72
2019-01-31T00:15:34.614Z,71.20
2019-01-31T00:16:05.794Z,71.70
2019-01-31T00:16:36.959Z,70.10
2019-01-31T00:17:08.133Z,69.47
2019-01-31T00:17:39.307Z,71.28
2019-01-31T00:18:10.489Z,69.10
2019-01-31T00:18:41.641Z,67.92
2019-01-31T00:19:12.872Z,69.27
2019-01-31T00:19:44.043Z,68.05
2019-01-31T00:20:15.240Z,68.70
2019-01-31T00:20:46.416Z,67.53
2019-01-31T00:21:17.582Z,68.22
2019-01-31T00:21:48.749Z,66.30
2019-01-31T00:22:19.924Z,69.62
2019-01-31T00:22:51.092Z,72.53
2019-01-31T00:23:22.276Z,70.37
2019-01-31T00:23:53.456Z,71.33
2019-01-31T00:24:24.670Z,69.85
2019-01-31T00:24:55.856Z,68.55
2019-01-31T00:25:27.041Z,69.40
2019-01-31T00:25:58.262Z,69.07
2019-01-31T00:26:29.440Z,68.92
2019-01-31T00:27:00.598Z,69.53
2019-01-31T00:27:31.763Z,68.57
2019-01-31T00:28:02.926Z,65.78
2019-01-31T00:28:34.112Z,68.42
2019-01-31T00:29:05.280Z,67.15
2019-01-31T00:29:36.451Z,62.80
2019-01-31T00:30:07.622Z,63.15
2019-01-31T00:30:38.808Z,59.85
2019-01-31T00:31:10.162Z,57.17
2019-01-31T00:31:41.272Z,61.50
2019-01-31T00:32:12.459Z,59.65
2019-01-31T00:32:43.626Z,65.90
2019-01-31T00:33:14.790Z,67.25
2019-01-31T00:33:45.982Z,66.07
2019-01-31T00:34:17.157Z,63.58
2019-01-31T00:34:48.385Z,61.88
2019-01-31T00:35:19.564Z,63.98
2019-01-31T00:35:50.721Z,66.47
2019-01-31T00:36:21.889Z,64.80
2019-01-31T00:36:53.041Z,66.70
2019-01-31T00:37:24.220Z,65.65
2019-01-31T00:37:55.404Z,63.65
2019-01-31T00:38:26.570Z,59.58
2019-01-31T00:38:57.752Z,65.10
2019-01-31T00:39:28.926Z,66.28
2019-01-31T00:40:00.200Z,67.58
2019-01-31T00:40:31.347Z,64.15
2019-01-31T00:41:02.527Z,59.27
2019-01-31T00:41:33.705Z,59.13
2019-01-31T00:42:04.898Z,60.10
2019-01-31T00:42:36.110Z,62.50
2019-01-31T00:43:07.325Z,52.93
2019-01-31T00:43:38.534Z,42.35
2019-01-31T00:44:09.746Z,34.18
2019-01-31T00:44:40.960Z,36.68
2019-01-31T00:45:12.161Z,40.20
2019-01-31T00:45:43.409Z,42.88
2019-01-31T00:46:14.621Z,41.50
2019-01-31T00:46:45.909Z,38.63
2019-01-31T00:47:17.119Z,42.75
2019-01-31T00:47:48.319Z,41.02
2019-01-31T00:48:19.543Z,42.43
2019-01-31T00:48:52.862Z,41.50
2019-01-31T00:49:24.093Z,40.88
2019-01-31T00:49:55.283Z,38.42
2019-01-31T00:50:26.481Z,39.67
2019-01-31T00:50:57.753Z,46.10
2019-01-31T00:51:28.909Z,40.95
2019-01-31T00:52:02.197Z,38.48
2019-01-31T00:52:33.353Z,36.53
2019-01-31T00:53:04.513Z,33.98
2019-01-31T00:53:35.675Z,34.27
2019-01-31T00:54:06.933Z,35.58
2019-01-31T00:54:38.091Z,37.15
2019-01-31T00:55:09.292Z,41.75
2019-01-31T00:55:40.485Z,45.38
2019-01-31T00:56:11.649Z,48.10
2019-01-31T00:56:42.818Z,50.00
2019-01-31T00:57:14.043Z,50.43
2019-01-31T00:57:45.216Z,49.33
2019-01-31T00:58:16.421Z,50.20
2019-01-31T00:58:47.586Z,54.63
2019-01-31T00:59:18.766Z,49.58
2019-01-31T00:59:49.931Z,51.75
2019-01-31T01:00:21.097Z,47.43
2019-01-31T01:00:52.273Z,56.63
2019-01-31T01:01:23.487Z,62.85
2019-01-31T01:01:54.657Z,65.17
2019-01-31T01:02:25.818Z,62.67
2019-01-31T01:02:56.998Z,61.15
2019-01-31T01:03:28.183Z,59.05
2019-01-31T01:03:59.394Z,60.88
2019-01-31T01:04:30.575Z,56.33
2019-01-31T01:05:01.761Z,53.48
2019-01-31T01:05:32.959Z,52.60
2019-01-31T01:06:04.129Z,53.38
2019-01-31T01:06:35.295Z,48.65
2019-01-31T01:07:06.478Z,48.25
2019-01-31T01:07:37.660Z,40.83
2019-01-31T01:08:08.880Z,51.73
2019-01-31T01:08:40.093Z,52.70
2019-01-31T01:09:11.258Z,52.35
2019-01-31T01:09:42.423Z,57.60
2019-01-31T01:10:13.594Z,60.43
2019-01-31T01:10:44.762Z,62.48
2019-01-31T01:11:15.951Z,65.22
2019-01-31T01:11:47.110Z,64.55
2019-01-31T01:12:18.273Z,67.12
2019-01-31T01:12:49.452Z,58.25
2019-01-31T01:13:20.592Z,60.25
2019-01-31T01:13:51.778Z,56.33
2019-01-31T01:14:22.967Z,58.80
2019-01-31T01:14:54.122Z,60.20
2019-01-31T01:15:25.300Z,65.10
2019-01-31T01:15:56.470Z,63.40
2019-01-31T01:16:27.645Z,62.03
2019-01-31T01:16:58.814Z,62.70
2019-01-31T01:17:29.976Z,61.58
2019-01-31T01:18:01.163Z,66.00
2019-01-31T01:18:34.679Z,64.58
2019-01-31T01:19:05.861Z,67.17
2019-01-31T01:19:37.024Z,71.55
2019-01-31T01:20:08.193Z,73.65
2019-01-31T01:20:39.367Z,73.45
2019-01-31T01:21:10.581Z,74.72
2019-01-31T01:21:41.745Z,76.95
2019-01-31T01:22:12.913Z,74.92
2019-01-31T01:22:44.088Z,76.12
2019-01-31T01:23:15.292Z,74.75
2019-01-31T01:23:46.885Z,81.02
2019-01-31T01:24:18.049Z,75.83
2019-01-31T01:24:49.215Z,65.87
2019-01-31T01:25:20.456Z,51.92
2019-01-31T01:25:51.618Z,49.10
2019-01-31T01:26:22.782Z,57.90
2019-01-31T01:26:53.955Z,54.10
2019-01-31T01:27:25.102Z,55.05
2019-01-31T01:27:56.285Z,60.85
2019-01-31T01:28:27.459Z,63.87
2019-01-31T01:28:58.656Z,65.97
2019-01-31T01:29:29.821Z,68.12
2019-01-31T01:30:00.982Z,70.85
2019-01-31T01:30:32.190Z,76.47
2019-01-31T01:31:03.357Z,77.12
2019-01-31T01:31:34.524Z,81.02
2019-01-31T01:32:05.797Z,78.52
2019-01-31T01:32:36.954Z,72.85
2019-01-31T01:33:08.134Z,73.05
2019-01-31T01:33:39.310Z,69.70
2019-01-31T01:34:10.489Z,68.97
2019-01-31T01:34:41.657Z,67.47
2019-01-31T01:35:12.891Z,71.02
2019-01-31T01:35:44.061Z,71.53
2019-01-31T01:36:15.240Z,69.37
2019-01-31T01:36:46.419Z,71.67
2019-01-31T01:37:17.586Z,71.33
2019-01-31T01:37:48.894Z,71.35
2019-01-31T01:38:20.052Z,74.40
2019-01-31T01:38:51.231Z,73.15
2019-01-31T01:39:22.425Z,69.87
2019-01-31T01:39:53.591Z,68.83
2019-01-31T01:40:24.758Z,66.02
2019-01-31T01:40:55.923Z,66.42
2019-01-31T01:41:27.085Z,63.95
2019-01-31T01:41:58.254Z,66.97
2019-01-31T01:42:29.436Z,57.98
2019-01-31T01:43:00.669Z,57.98
2019-01-31T01:43:31.842Z,66.55
2019-01-31T01:44:03.027Z,60.88
2019-01-31T01:44:34.214Z,64.12
2019-01-31T01:45:05.377Z,67.42
2019-01-31T01:45:36.558Z,61.58
2019-01-31T01:46:07.723Z,60.10
2019-01-31T01:46:38.908Z,53.33
2019-01-31T01:47:10.079Z,45.73
2019-01-31T01:47:41.253Z,39.80
2019-01-31T01:48:12.435Z,45.58
2019-01-31T01:48:43.599Z,47.13
2019-01-31T01:49:14.804Z,48.02
2019-01-31T01:49:46.079Z,48.60
2019-01-31T01:50:17.315Z,50.88
2019-01-31T01:50:48.527Z,50.12
2019-01-31T01:51:19.740Z,52.43
2019-01-31T01:51:50.945Z,53.48
2019-01-31T01:52:22.144Z,49.77
2019-01-31T01:52:53.357Z,46.83
2019-01-31T01:53:24.583Z,47.35
2019-01-31T01:53:55.830Z,47.93
2019-01-31T01:54:27.089Z,47.38
2019-01-31T01:54:58.290Z,44.33
2019-01-31T01:55:29.508Z,46.42
2019-01-31T01:56:00.746Z,47.83
2019-01-31T01:56:32.019Z,44.27
2019-01-31T01:57:03.234Z,48.87
2019-01-31T01:57:34.458Z,48.50
2019-01-31T01:58:05.700Z,49.25
2019-01-31T01:58:36.924Z,46.75
2019-01-31T01:59:08.187Z,44.90
2019-01-31T01:59:39.449Z,48.58
2019-01-31T02:00:10.668Z,50.75
2019-01-31T02:00:41.880Z,50.12
2019-01-31T02:01:13.085Z,47.85
2019-01-31T02:01:44.310Z,43.10
2019-01-31T02:02:15.564Z,45.28
2019-01-31T02:02:46.776Z,49.93
2019-01-31T02:03:18.007Z,52.17
2019-01-31T02:03:49.221Z,49.98
2019-01-31T02:04:20.434Z,50.28
2019-01-31T02:04:51.651Z,50.00
2019-01-31T02:05:22.898Z,47.38
2019-01-31T02:05:54.133Z,45.67
2019-01-31T02:06:25.357Z,46.75
2019-01-31T02:06:56.551Z,45.63
2019-01-31T02:07:27.757Z,48.75
2019-01-31T02:07:58.966Z,50.78
2019-01-31T02:08:30.188Z,51.95
2019-01-31T02:09:01.482Z,52.10
2019-01-31T02:09:32.685Z,53.15
2019-01-31T02:10:03.949Z,53.70
2019-01-31T02:10:35.160Z,55.28
2019-01-31T02:11:06.413Z,54.83
2019-01-31T02:11:37.625Z,55.35
2019-01-31T02:12:08.838Z,51.63
2019-01-31T02:12:40.029Z,55.43
2019-01-31T02:13:11.241Z,56.68
2019-01-31T02:13:42.456Z,55.10
2019-01-31T02:14:13.658Z,58.80
2019-01-31T02:14:44.895Z,56.83
2019-01-31T02:15:16.082Z,58.30
2019-01-31T02:15:47.346Z,58.10
2019-01-31T02:16:18.571Z,58.60
2019-01-31T02:16:51.473Z,58.20
2019-01-31T02:17:22.951Z,55.67
2019-01-31T02:17:55.139Z,52.40
2019-01-31T02:18:26.360Z,51.02
2019-01-31T02:18:57.586Z,54.80
2019-01-31T02:19:28.897Z,53.85
2019-01-31T02:20:00.353Z,55.95
2019-01-31T02:20:31.609Z,55.03
2019-01-31T02:21:02.865Z,55.48
2019-01-31T02:21:34.075Z,55.58
2019-01-31T02:22:05.325Z,53.13
2019-01-31T02:22:36.533Z,53.42
2019-01-31T02:23:07.749Z,64.27
2019-01-31T02:23:39.302Z,65.15
2019-01-31T02:24:10.501Z,63.85
2019-01-31T02:24:41.693Z,57.75
2019-01-31T02:25:12.901Z,64.25
2019-01-31T02:25:44.114Z,64.97
2019-01-31T02:26:15.367Z,67.78
2019-01-31T02:26:46.574Z,62.58
2019-01-31T02:27:17.793Z,60.85
2019-01-31T02:27:49.000Z,59.67
2019-01-31T02:28:20.212Z,62.33
2019-01-31T02:28:51.441Z,58.83
2019-01-31T02:29:22.678Z,65.17
2019-01-31T02:29:53.913Z,61.85
2019-01-31T02:30:25.115Z,60.58
2019-01-31T02:30:56.334Z,55.28
2019-01-31T02:31:27.610Z,52.85
2019-01-31T02:31:58.848Z,44.48
2019-01-31T02:32:30.064Z,45.50
2019-01-31T02:33:01.282Z,46.58
2019-01-31T02:33:32.493Z,51.65
2019-01-31T02:34:03.702Z,50.88
2019-01-31T02:34:35.052Z,51.83
2019-01-31T02:35:06.219Z,49.55
2019-01-31T02:35:37.491Z,46.85
2019-01-31T02:36:08.692Z,46.02
2019-01-31T02:36:39.915Z,47.03
2019-01-31T02:37:11.122Z,50.10
2019-01-31T02:37:42.330Z,48.42
2019-01-31T02:38:13.527Z,47.60
2019-01-31T02:38:44.739Z,51.48
2019-01-31T02:39:15.969Z,58.68
2019-01-31T02:39:47.175Z,59.45
2019-01-31T02:40:18.399Z,59.18
2019-01-31T02:40:49.651Z,53.38
2019-01-31T02:41:20.857Z,48.90
2019-01-31T02:41:52.071Z,47.85
2019-01-31T02:42:23.311Z,51.65
2019-01-31T02:42:54.528Z,50.75
2019-01-31T02:43:25.748Z,54.05
2019-01-31T02:43:57.003Z,54.10
2019-01-31T02:44:28.392Z,49.75
2019-01-31T02:44:59.585Z,44.73
2019-01-31T02:45:30.810Z,54.65
2019-01-31T02:46:02.028Z,63.87
2019-01-31T02:46:33.261Z,65.85
2019-01-31T02:47:04.483Z,72.85
2019-01-31T02:47:35.692Z,62.15
2019-01-31T02:48:06.895Z,61.08
2019-01-31T02:48:38.106Z,59.20
2019-01-31T02:49:09.318Z,60.88
2019-01-31T02:49:40.588Z,53.85
2019-01-31T02:50:11.799Z,56.77
2019-01-31T02:50:43.011Z,61.13
2019-01-31T02:51:14.241Z,63.55
2019-01-31T02:51:45.434Z,68.20
2019-01-31T02:52:16.673Z,67.15
2019-01-31T02:52:47.888Z,63.85
2019-01-31T02:53:19.145Z,61.02
2019-01-31T02:53:50.352Z,49.42
2019-01-31T02:54:21.563Z,41.53
2019-01-31T02:54:52.788Z,43.98
2019-01-31T02:55:24.001Z,46.80
2019-01-31T02:55:55.222Z,47.00
2019-01-31T02:56:26.436Z,50.85
2019-01-31T02:56:57.657Z,52.08
2019-01-31T02:57:28.890Z,54.25
2019-01-31T02:58:00.104Z,54.30
2019-01-31T02:58:31.469Z,50.23
2019-01-31T02:59:02.671Z,46.08
2019-01-31T02:59:33.937Z,48.98
2019-01-31T03:00:05.201Z,47.80
2019-01-31T03:00:36.419Z,48.83
2019-01-31T03:01:07.647Z,51.35
2019-01-31T03:01:38.895Z,51.33
2019-01-31T03:02:10.109Z,48.40
2019-01-31T03:02:41.377Z,51.20
2019-01-31T03:03:12.657Z,55.88
2019-01-31T03:03:43.892Z,54.42
2019-01-31T03:04:15.119Z,51.85
2019-01-31T03:04:46.359Z,55.92
2019-01-31T03:05:17.570Z,52.80
2019-01-31T03:05:48.789Z,52.98
2019-01-31T03:06:20.002Z,50.67
2019-01-31T03:06:51.223Z,52.05
2019-01-31T03:07:22.790Z,40.23
2019-01-31T03:07:54.037Z,41.42
2019-01-31T03:08:25.253Z,47.13
2019-01-31T03:08:56.458Z,43.92
2019-01-31T03:09:27.692Z,44.80
2019-01-31T03:09:58.892Z,39.08
2019-01-31T03:10:30.097Z,40.43
2019-01-31T03:11:01.315Z,36.77
2019-01-31T03:11:32.516Z,42.80
2019-01-31T03:12:03.727Z,40.60
2019-01-31T03:12:34.928Z,38.02
2019-01-31T03:13:06.587Z,36.33
2019-01-31T03:13:37.815Z,36.45
2019-01-31T03:14:10.441Z,55.28
2019-01-31T03:14:41.988Z,41.77
2019-01-31T03:15:13.205Z,40.88
2019-01-31T03:15:44.473Z,34.13
2019-01-31T03:16:15.684Z,36.55
2019-01-31T03:16:47.010Z,32.10
2019-01-31T03:17:18.260Z,45.83
2019-01-31T03:17:49.466Z,44.48
2019-01-31T03:18:20.676Z,43.80
2019-01-31T03:18:51.908Z,37.10
2019-01-31T03:19:23.134Z,67.65
2019-01-31T03:19:54.342Z,53.55
2019-01-31T03:20:25.556Z,47.08
2019-01-31T03:20:56.811Z,56.42
2019-01-31T03:21:28.034Z,60.23
2019-01-31T03:21:59.240Z,55.40
2019-01-31T03:22:30.532Z,40.23
2019-01-31T03:23:01.757Z,41.77
2019-01-31T03:23:32.978Z,45.75
2019-01-31T03:24:04.192Z,42.10
2019-01-31T03:24:35.409Z,33.88
2019-01-31T03:25:06.623Z,38.40
2019-01-31T03:25:37.832Z,35.98
2019-01-31T03:26:09.054Z,40.90
2019-01-31T03:26:40.273Z,34.63
2019-01-31T03:27:11.497Z,38.53
2019-01-31T03:27:42.721Z,36.20
2019-01-31T03:28:14.003Z,37.05
2019-01-31T03:28:45.197Z,43.75
2019-01-31T03:29:16.396Z,34.23
2019-01-31T03:29:47.607Z,39.65
2019-01-31T03:30:18.892Z,37.15
2019-01-31T03:30:50.096Z,34.33
2019-01-31T03:31:21.336Z,41.30
2019-01-31T03:31:52.545Z,33.48
2019-01-31T03:32:23.753Z,32.90
2019-01-31T03:32:54.974Z,34.15
2019-01-31T03:33:26.187Z,46.83
2019-01-31T03:33:57.390Z,44.13
2019-01-31T03:34:28.621Z,36.13
2019-01-31T03:34:59.874Z,29.95
2019-01-31T03:35:31.144Z,32.35
2019-01-31T03:36:02.360Z,40.28
2019-01-31T03:36:33.574Z,48.10
2019-01-31T03:37:04.831Z,36.20
2019-01-31T03:37:36.103Z,29.48
2019-01-31T03:38:07.356Z,37.25
2019-01-31T03:38:38.561Z,38.63
2019-01-31T03:39:09.771Z,31.77
2019-01-31T03:39:40.977Z,36.05
2019-01-31T03:40:12.197Z,36.50
2019-01-31T03:40:43.446Z,45.38
2019-01-31T03:41:14.692Z,34.27
2019-01-31T03:41:45.915Z,31.17
2019-01-31T03:42:17.181Z,27.55
2019-01-31T03:42:48.407Z,42.43
2019-01-31T03:43:19.630Z,38.13
2019-01-31T03:43:50.852Z,35.33
2019-01-31T03:44:22.083Z,36.93
2019-01-31T03:44:53.297Z,38.67
2019-01-31T03:45:24.500Z,37.13
2019-01-31T03:45:55.719Z,30.20
2019-01-31T03:46:26.974Z,29.65
2019-01-31T03:46:58.179Z,33.60
2019-01-31T03:47:29.465Z,28.42
2019-01-31T03:48:00.695Z,41.15
2019-01-31T03:48:31.912Z,43.58
2019-01-31T03:49:03.135Z,35.52
2019-01-31T03:49:34.391Z,35.35
2019-01-31T03:50:06.887Z,36.83
2019-01-31T03:50:38.409Z,33.73
2019-01-31T03:51:09.610Z,38.83
2019-01-31T03:51:40.822Z,44.60
2019-01-31T03:52:12.025Z,42.35
2019-01-31T03:52:43.280Z,33.20
2019-01-31T03:53:14.492Z,36.83
2019-01-31T03:53:45.710Z,37.25
2019-01-31T03:54:16.925Z,43.35
2019-01-31T03:54:48.151Z,40.00
2019-01-31T03:55:19.374Z,32.67
2019-01-31T03:55:50.605Z,32.90
2019-01-31T03:56:21.815Z,43.23
2019-01-31T03:56:53.026Z,36.73
2019-01-31T03:57:24.253Z,41.28
2019-01-31T03:57:55.527Z,37.15
2019-01-31T03:58:26.739Z,37.78
2019-01-31T03:58:57.951Z,41.30
2019-01-31T03:59:29.161Z,37.48
2019-01-31T04:00:00.417Z,33.10
2019-01-31T04:00:31.596Z,35.35
2019-01-31T04:01:02.841Z,30.48
2019-01-31T04:01:34.069Z,39.33
2019-01-31T04:02:05.295Z,29.57
2019-01-31T04:02:36.515Z,32.75
2019-01-31T04:03:08.001Z,35.60
2019-01-31T04:03:39.239Z,42.98
2019-01-31T04:04:10.460Z,35.73
2019-01-31T04:04:41.692Z,36.88
2019-01-31T04:05:12.906Z,44.55
2019-01-31T04:05:44.127Z,36.03
2019-01-31T04:06:15.356Z,39.10
2019-01-31T04:06:46.566Z,35.85
2019-01-31T04:07:17.801Z,38.10
2019-01-31T04:07:49.029Z,35.23
2019-01-31T04:08:20.282Z,35.85
2019-01-31T04:08:51.508Z,40.98
2019-01-31T04:09:22.651Z,35.90
2019-01-31T04:09:53.874Z,42.67
2019-01-31T04:10:25.081Z,37.78
2019-01-31T04:10:56.293Z,37.30
2019-01-31T04:11:27.548Z,40.28
2019-01-31T04:11:58.768Z,44.18
2019-01-31T04:12:30.002Z,44.70
2019-01-31T04:13:01.262Z,35.33
2019-01-31T04:13:32.470Z,29.23
2019-01-31T04:14:03.722Z,29.30
2019-01-31T04:14:34.935Z,31.60
2019-01-31T04:15:06.134Z,30.80
2019-01-31T04:15:37.416Z,29.25
2019-01-31T04:16:08.623Z,29.02
2019-01-31T04:16:39.829Z,35.65
2019-01-31T04:17:11.047Z,35.15
2019-01-31T04:17:42.325Z,37.70
2019-01-31T04:18:13.588Z,54.27
2019-01-31T04:18:44.816Z,58.15
2019-01-31T04:19:16.024Z,55.50
2019-01-31T04:19:47.305Z,40.95
2019-01-31T04:20:18.505Z,36.55
2019-01-31T04:20:51.202Z,40.92
2019-01-31T04:21:22.567Z,40.25
2019-01-31T04:21:53.806Z,36.95
2019-01-31T04:22:25.006Z,48.65
2019-01-31T04:22:56.215Z,37.65
2019-01-31T04:23:27.475Z,35.85
2019-01-31T04:23:58.694Z,37.50
2019-01-31T04:24:29.931Z,38.78
2019-01-31T04:25:01.139Z,39.78
2019-01-31T04:25:34.432Z,34.70
2019-01-31T04:26:05.663Z,42.67
2019-01-31T04:26:36.874Z,37.78
2019-01-31T04:27:08.096Z,30.77
2019-01-31T04:27:39.304Z,35.33
2019-01-31T04:28:10.522Z,35.03
2019-01-31T04:28:41.727Z,36.85
2019-01-31T04:29:12.941Z,42.43
2019-01-31T04:29:44.153Z,39.55
2019-01-31T04:30:15.366Z,36.30
2019-01-31T04:30:46.635Z,42.17
2019-01-31T04:31:17.846Z,38.73
2019-01-31T04:31:49.104Z,38.63
2019-01-31T04:32:20.324Z,38.35
2019-01-31T04:32:51.555Z,32.93
2019-01-31T04:33:22.780Z,35.65
2019-01-31T04:33:53.997Z,39.80
2019-01-31T04:34:25.206Z,36.85
2019-01-31T04:34:56.424Z,39.27
2019-01-31T04:35:27.640Z,29.87
2019-01-31T04:35:58.898Z,28.83
2019-01-31T04:36:30.125Z,41.40
2019-01-31T04:37:01.374Z,36.40
2019-01-31T04:37:32.582Z,28.32
2019-01-31T04:38:03.825Z,31.90
2019-01-31T04:38:35.036Z,29.67
2019-01-31T04:39:06.292Z,37.48
2019-01-31T04:39:37.498Z,29.90
2019-01-31T04:40:08.713Z,28.00
2019-01-31T04:40:39.985Z,32.90
2019-01-31T04:41:11.201Z,39.33
2019-01-31T04:41:42.474Z,41.92
2019-01-31T04:42:13.677Z,32.93
2019-01-31T04:42:45.563Z,36.08
2019-01-31T04:43:16.782Z,26.27
2019-01-31T04:43:48.002Z,36.55
2019-01-31T04:44:19.200Z,38.98
2019-01-31T04:44:50.715Z,27.67
2019-01-31T04:45:21.954Z,32.28
2019-01-31T04:45:53.178Z,29.45
2019-01-31T04:46:24.393Z,32.23
2019-01-31T04:46:55.645Z,29.90
2019-01-31T04:47:26.860Z,29.52
2019-01-31T04:47:58.065Z,30.45
2019-01-31T04:48:29.273Z,28.57
2019-01-31T04:49:00.491Z,28.92
2019-01-31T04:49:31.706Z,30.08
2019-01-31T04:50:02.985Z,30.40
2019-01-31T04:50:34.190Z,30.68
2019-01-31T04:51:05.419Z,32.60
2019-01-31T04:51:36.658Z,32.10
2019-01-31T04:52:10.165Z,40.38
2019-01-31T04:52:41.366Z,43.95
2019-01-31T04:53:12.568Z,40.70
2019-01-31T04:53:43.781Z,49.20
2019-01-31T04:54:14.998Z,35.45
2019-01-31T04:54:46.195Z,34.63
2019-01-31T04:55:17.517Z,34.55
2019-01-31T04:55:48.734Z,37.95
2019-01-31T04:56:19.940Z,41.95
2019-01-31T04:56:51.165Z,54.42
2019-01-31T04:57:22.415Z,59.53
2019-01-31T04:57:53.618Z,61.25
2019-01-31T04:58:24.836Z,53.87
2019-01-31T04:58:56.048Z,48.50
2019-01-31T04:59:27.254Z,40.20
2019-01-31T04:59:58.499Z,51.40
2019-01-31T05:00:29.703Z,42.53
2019-01-31T05:01:00.850Z,37.38
2019-01-31T05:01:32.052Z,40.40
2019-01-31T05:02:03.288Z,41.20
2019-01-31T05:02:34.551Z,38.85
2019-01-31T05:03:05.762Z,37.73
2019-01-31T05:03:36.989Z,42.85
2019-01-31T05:04:08.199Z,48.17
2019-01-31T05:04:39.416Z,46.35
2019-01-31T05:05:10.615Z,49.98
2019-01-31T05:05:41.826Z,47.25
2019-01-31T05:06:13.172Z,46.08
2019-01-31T05:06:44.357Z,50.52
2019-01-31T05:07:15.639Z,49.55
2019-01-31T05:07:46.905Z,52.08
2019-01-31T05:08:18.128Z,50.45
2019-01-31T05:08:49.342Z,49.18
2019-01-31T05:09:20.939Z,37.55
2019-01-31T05:09:52.183Z,41.42
2019-01-31T05:10:23.401Z,37.80
2019-01-31T05:10:54.614Z,39.83
2019-01-31T05:11:25.830Z,47.85
2019-01-31T05:11:57.046Z,37.53
2019-01-31T05:12:28.255Z,46.58
2019-01-31T05:12:59.507Z,35.40
2019-01-31T05:13:30.711Z,46.35
2019-01-31T05:14:01.929Z,46.85
2019-01-31T05:14:33.172Z,45.90
2019-01-31T05:15:04.398Z,64.30
2019-01-31T05:15:35.632Z,73.15
2019-01-31T05:16:06.840Z,52.73
2019-01-31T05:16:38.049Z,55.08
2019-01-31T05:17:09.262Z,70.87
2019-01-31T05:17:40.465Z,77.00
2019-01-31T05:18:11.765Z,63.25
2019-01-31T05:18:42.976Z,76.12
2019-01-31T05:19:14.240Z,63.85
2019-01-31T05:19:45.504Z,54.30
2019-01-31T05:20:16.729Z,46.08
2019-01-31T05:20:47.928Z,54.38
2019-01-31T05:21:21.041Z,56.05
2019-01-31T05:21:52.154Z,62.40
2019-01-31T05:22:23.366Z,57.15
2019-01-31T05:22:54.585Z,50.55
2019-01-31T05:23:25.811Z,59.15
2019-01-31T05:23:57.031Z,54.95
2019-01-31T05:24:28.294Z,47.65
2019-01-31T05:24:59.499Z,46.40
2019-01-31T05:25:30.713Z,48.23
2019-01-31T05:26:01.933Z,44.55
2019-01-31T05:26:33.136Z,45.05
2019-01-31T05:27:04.582Z,48.08
2019-01-31T05:27:35.832Z,42.08
2019-01-31T05:28:07.102Z,48.42
2019-01-31T05:28:38.312Z,45.65
2019-01-31T05:29:09.518Z,43.80
2019-01-31T05:29:40.767Z,59.03
2019-01-31T05:30:11.953Z,52.30
2019-01-31T05:30:43.180Z,52.62
2019-01-31T05:31:14.349Z,47.08
2019-01-31T05:31:45.564Z,41.18
2019-01-31T05:32:16.822Z,44.67
2019-01-31T05:32:48.022Z,39.05
2019-01-31T05:33:19.259Z,46.35
2019-01-31T05:33:50.701Z,43.92
2019-01-31T05:34:21.923Z,44.10
2019-01-31T05:34:53.150Z,70.25
2019-01-31T05:35:25.088Z,57.08
2019-01-31T05:35:56.292Z,48.28
2019-01-31T05:36:27.508Z,46.50
2019-01-31T05:36:58.736Z,59.77
2019-01-31T05:37:29.958Z,52.17
2019-01-31T05:38:01.175Z,44.88
2019-01-31T05:38:32.409Z,48.23
2019-01-31T05:39:03.672Z,42.08
2019-01-31T05:39:34.936Z,44.58
2019-01-31T05:40:06.134Z,44.73
2019-01-31T05:40:37.378Z,39.25
2019-01-31T05:41:08.612Z,43.80
2019-01-31T05:41:39.849Z,44.60
2019-01-31T05:42:11.069Z,40.78
2019-01-31T05:42:42.297Z,49.23
2019-01-31T05:43:13.571Z,46.30
2019-01-31T05:43:44.772Z,44.75
2019-01-31T05:44:15.986Z,40.08
2019-01-31T05:44:47.205Z,46.88
2019-01-31T05:45:18.407Z,37.78
2019-01-31T05:45:49.702Z,41.23
2019-01-31T05:46:20.897Z,38.73
2019-01-31T05:46:52.171Z,47.43
2019-01-31T05:47:23.378Z,53.60
2019-01-31T05:47:54.585Z,53.35
2019-01-31T05:48:25.859Z,39.10
2019-01-31T05:48:57.028Z,46.00
2019-01-31T05:49:28.255Z,32.42
2019-01-31T05:49:59.475Z,31.37
2019-01-31T05:50:30.754Z,29.27
2019-01-31T05:51:01.958Z,29.77
2019-01-31T05:51:33.191Z,28.07
2019-01-31T05:52:04.467Z,41.02
2019-01-31T05:52:35.680Z,43.02
2019-01-31T05:53:07.117Z,46.48
2019-01-31T05:53:38.328Z,43.92
2019-01-31T05:54:09.535Z,41.23
2019-01-31T05:54:40.743Z,44.80
2019-01-31T05:55:11.960Z,42.95
2019-01-31T05:55:43.293Z,44.23
2019-01-31T05:56:14.479Z,58.15
2019-01-31T05:56:46.449Z,49.90
2019-01-31T05:57:17.681Z,54.55
2019-01-31T05:57:48.922Z,38.00
2019-01-31T05:58:20.159Z,57.35
2019-01-31T05:58:51.377Z,48.68
2019-01-31T05:59:22.656Z,46.15
2019-01-31T05:59:53.880Z,42.08
2019-01-31T06:00:25.119Z,40.43
2019-01-31T06:00:56.346Z,41.77
2019-01-31T06:01:27.609Z,58.02
2019-01-31T06:01:58.815Z,50.12
2019-01-31T06:02:30.039Z,54.35
2019-01-31T06:03:01.259Z,40.92
2019-01-31T06:03:32.480Z,39.73
2019-01-31T06:04:03.703Z,41.08
2019-01-31T06:04:34.927Z,37.78
2019-01-31T06:05:06.157Z,48.73
2019-01-31T06:05:37.404Z,51.00
2019-01-31T06:06:08.609Z,53.92
2019-01-31T06:06:39.874Z,48.48
2019-01-31T06:07:11.611Z,39.20
2019-01-31T06:07:42.933Z,38.55
2019-01-31T06:08:14.144Z,35.08
2019-01-31T06:08:45.360Z,38.55
2019-01-31T06:09:16.582Z,44.42
2019-01-31T06:09:47.798Z,40.65
2019-01-31T06:10:19.022Z,34.98
2019-01-31T06:10:50.257Z,33.73
2019-01-31T06:11:21.554Z,32.48
2019-01-31T06:11:52.781Z,32.60
2019-01-31T06:12:23.998Z,33.23
2019-01-31T06:12:55.213Z,34.55
2019-01-31T06:13:26.447Z,43.28
2019-01-31T06:13:57.662Z,39.53
2019-01-31T06:14:29.189Z,32.35
2019-01-31T06:15:00.429Z,30.80
2019-01-31T06:15:31.715Z,36.73
2019-01-31T06:16:02.923Z,41.15
2019-01-31T06:16:34.146Z,33.55
2019-01-31T06:17:05.375Z,38.23
2019-01-31T06:17:36.874Z,42.40
2019-01-31T06:18:08.120Z,40.35
2019-01-31T06:18:39.368Z,43.05
2019-01-31T06:19:10.633Z,35.15
2019-01-31T06:19:41.876Z,45.70
2019-01-31T06:20:13.095Z,45.25
2019-01-31T06:20:44.357Z,51.33
2019-01-31T06:21:15.578Z,43.48
2019-01-31T06:21:46.817Z,36.10
2019-01-31T06:22:18.079Z,48.38
2019-01-31T06:22:49.285Z,38.98
2019-01-31T06:23:20.523Z,51.25
2019-01-31T06:23:51.741Z,52.08
2019-01-31T06:24:23.428Z,54.42
2019-01-31T06:24:54.644Z,42.33
2019-01-31T06:25:25.881Z,47.90
2019-01-31T06:25:57.119Z,37.93
2019-01-31T06:26:28.333Z,47.93
2019-01-31T06:26:59.547Z,49.88
2019-01-31T06:27:30.768Z,46.23
2019-01-31T06:28:01.982Z,49.05
2019-01-31T06:28:33.247Z,53.35
2019-01-31T06:29:04.459Z,45.50
2019-01-31T06:29:35.726Z,56.23
2019-01-31T06:30:06.946Z,53.25
2019-01-31T06:30:38.155Z,57.90
2019-01-31T06:31:09.383Z,42.50
2019-01-31T06:31:40.681Z,37.15
2019-01-31T06:32:11.912Z,47.85
2019-01-31T06:32:43.029Z,29.60
2019-01-31T06:33:14.292Z,25.77
2019-01-31T06:33:45.537Z,38.78
2019-01-31T06:34:16.788Z,36.48
2019-01-31T06:34:48.005Z,26.42
2019-01-31T06:35:19.249Z,31.77
2019-01-31T06:35:50.510Z,24.55
2019-01-31T06:36:21.781Z,30.43
2019-01-31T06:36:53.116Z,34.70
2019-01-31T06:37:24.331Z,32.30
2019-01-31T06:37:55.573Z,32.85
2019-01-31T06:38:26.835Z,29.57
2019-01-31T06:38:58.104Z,27.77
2019-01-31T06:39:29.325Z,29.15
2019-01-31T06:40:00.570Z,36.85
2019-01-31T06:40:31.778Z,34.13
2019-01-31T06:41:02.999Z,40.52
2019-01-31T06:41:34.223Z,36.63
2019-01-31T06:42:05.490Z,30.95
2019-01-31T06:42:36.716Z,30.20